sensor_id;sensor_type;location;lat;lon;timestamp;P1;durP1;ratioP1;P2;durP2;ratioP2
11767;SDS011;5941;57.652;12.514;2022-08-21T00:00:54;2.53;;;1.37;;
11767;SDS011;5941;57.652;12.514;2022-08-21T00:03:20;1.27;;;1.13;;
11767;SDS011;5941;57.652;12.514;2022-08-21T00:05:47;1.70;;;1.27;;
11767;SDS011;5941;57.652;12.514;2022-08-21T00:08:15;2.53;;;1.03;;
11767;SDS011;5941;57.652;12.514;2022-08-21T00:10:41;4.27;;;1.47;;
11767;SDS011;5941;57.652;12.514;2022-08-21T00:13:07;3.33;;;1.20;;
11767;SDS011;5941;57.652;12.514;2022-08-21T00:15:34;2.80;;;1.10;;
11767;SDS011;5941;57.652;12.514;2022-08-21T00:18:01;2.93;;;1.17;;
11767;SDS011;5941;57.652;12.514;2022-08-21T00:20:30;3.57;;;1.00;;
11767;SDS011;5941;57.652;12.514;2022-08-21T00:22:56;0.87;;;0.87;;
11767;SDS011;5941;57.652;12.514;2022-08-21T00:25:22;2.13;;;1.20;;
11767;SDS011;5941;57.652;12.514;2022-08-21T00:27:48;2.03;;;1.00;;
11767;SDS011;5941;57.652;12.514;2022-08-21T00:30:15;1.90;;;1.00;;
11767;SDS011;5941;57.652;12.514;2022-08-21T00:32:42;1.83;;;1.03;;
11767;SDS011;5941;57.652;12.514;2022-08-21T00:35:09;2.93;;;1.20;;
11767;SDS011;5941;57.652;12.514;2022-08-21T00:37:36;3.30;;;1.00;;
11767;SDS011;5941;57.652;12.514;2022-08-21T00:40:03;3.87;;;1.60;;
11767;SDS011;5941;57.652;12.514;2022-08-21T00:42:29;1.90;;;1.10;;
11767;SDS011;5941;57.652;12.514;2022-08-21T00:44:55;3.13;;;1.17;;
11767;SDS011;5941;57.652;12.514;2022-08-21T00:47:21;6.53;;;1.13;;
11767;SDS011;5941;57.652;12.514;2022-08-21T00:49:47;2.37;;;1.13;;
11767;SDS011;5941;57.652;12.514;2022-08-21T00:52:15;2.07;;;1.20;;
11767;SDS011;5941;57.652;12.514;2022-08-21T00:54:43;2.23;;;1.10;;
11767;SDS011;5941;57.652;12.514;2022-08-21T00:57:11;1.57;;;1.10;;
11767;SDS011;5941;57.652;12.514;2022-08-21T00:59:38;3.43;;;1.20;;
11767;SDS011;5941;57.652;12.514;2022-08-21T01:02:06;1.40;;;1.10;;
11767;SDS011;5941;57.652;12.514;2022-08-21T01:04:32;2.27;;;1.40;;
11767;SDS011;5941;57.652;12.514;2022-08-21T01:06:58;2.93;;;1.20;;
11767;SDS011;5941;57.652;12.514;2022-08-21T01:09:24;1.90;;;1.10;;
11767;SDS011;5941;57.652;12.514;2022-08-21T01:11:50;1.30;;;1.20;;
11767;SDS011;5941;57.652;12.514;2022-08-21T01:14:16;2.13;;;1.10;;
11767;SDS011;5941;57.652;12.514;2022-08-21T01:16:46;2.83;;;1.17;;
11767;SDS011;5941;57.652;12.514;2022-08-21T01:19:12;2.83;;;1.10;;
11767;SDS011;5941;57.652;12.514;2022-08-21T01:21:39;1.73;;;1.10;;
11767;SDS011;5941;57.652;12.514;2022-08-21T01:24:05;1.43;;;0.97;;
11767;SDS011;5941;57.652;12.514;2022-08-21T01:26:32;1.20;;;1.10;;
11767;SDS011;5941;57.652;12.514;2022-08-21T01:31:31;1.70;;;1.00;;
11767;SDS011;5941;57.652;12.514;2022-08-21T01:33:58;3.80;;;1.10;;
11767;SDS011;5941;57.652;12.514;2022-08-21T01:36:24;2.50;;;1.20;;
11767;SDS011;5941;57.652;12.514;2022-08-21T01:38:50;2.43;;;1.10;;
11767;SDS011;5941;57.652;12.514;2022-08-21T01:41:16;2.23;;;1.13;;
11767;SDS011;5941;57.652;12.514;2022-08-21T01:43:43;1.83;;;1.30;;
11767;SDS011;5941;57.652;12.514;2022-08-21T01:46:09;3.03;;;1.00;;
11767;SDS011;5941;57.652;12.514;2022-08-21T01:48:36;5.20;;;1.10;;
11767;SDS011;5941;57.652;12.514;2022-08-21T01:51:02;2.17;;;1.30;;
11767;SDS011;5941;57.652;12.514;2022-08-21T01:53:28;1.47;;;1.10;;
11767;SDS011;5941;57.652;12.514;2022-08-21T01:55:54;1.90;;;1.20;;
11767;SDS011;5941;57.652;12.514;2022-08-21T01:58:20;2.67;;;1.10;;
11767;SDS011;5941;57.652;12.514;2022-08-21T02:00:47;1.47;;;1.10;;
11767;SDS011;5941;57.652;12.514;2022-08-21T02:03:14;1.60;;;1.10;;
11767;SDS011;5941;57.652;12.514;2022-08-21T02:05:40;2.03;;;1.00;;
11767;SDS011;5941;57.652;12.514;2022-08-21T02:08:06;4.37;;;1.00;;
11767;SDS011;5941;57.652;12.514;2022-08-21T02:10:33;1.43;;;0.80;;
11767;SDS011;5941;57.652;12.514;2022-08-21T02:12:59;1.27;;;1.00;;
11767;SDS011;5941;57.652;12.514;2022-08-21T02:15:26;2.00;;;1.10;;
11767;SDS011;5941;57.652;12.514;2022-08-21T02:17:53;1.47;;;1.10;;
11767;SDS011;5941;57.652;12.514;2022-08-21T02:20:24;1.90;;;1.00;;
11767;SDS011;5941;57.652;12.514;2022-08-21T02:22:50;1.60;;;0.90;;
11767;SDS011;5941;57.652;12.514;2022-08-21T02:25:17;4.60;;;1.30;;
11767;SDS011;5941;57.652;12.514;2022-08-21T02:27:44;2.60;;;1.13;;
11767;SDS011;5941;57.652;12.514;2022-08-21T02:30:13;1.57;;;1.30;;
11767;SDS011;5941;57.652;12.514;2022-08-21T02:32:40;4.63;;;1.30;;
11767;SDS011;5941;57.652;12.514;2022-08-21T02:35:07;1.53;;;1.10;;
11767;SDS011;5941;57.652;12.514;2022-08-21T02:37:34;3.03;;;1.13;;
11767;SDS011;5941;57.652;12.514;2022-08-21T02:40:00;2.30;;;1.00;;
11767;SDS011;5941;57.652;12.514;2022-08-21T02:42:26;2.00;;;1.00;;
11767;SDS011;5941;57.652;12.514;2022-08-21T02:44:52;1.50;;;0.90;;
11767;SDS011;5941;57.652;12.514;2022-08-21T02:47:18;3.03;;;1.20;;
11767;SDS011;5941;57.652;12.514;2022-08-21T02:49:44;2.13;;;0.97;;
11767;SDS011;5941;57.652;12.514;2022-08-21T02:52:10;2.23;;;0.90;;
11767;SDS011;5941;57.652;12.514;2022-08-21T02:54:36;1.20;;;1.00;;
11767;SDS011;5941;57.652;12.514;2022-08-21T02:57:02;1.33;;;0.93;;
11767;SDS011;5941;57.652;12.514;2022-08-21T02:59:28;3.60;;;1.17;;
11767;SDS011;5941;57.652;12.514;2022-08-21T03:01:54;1.20;;;1.00;;
11767;SDS011;5941;57.652;12.514;2022-08-21T03:04:20;1.10;;;1.00;;
11767;SDS011;5941;57.652;12.514;2022-08-21T03:06:47;2.87;;;1.03;;
11767;SDS011;5941;57.652;12.514;2022-08-21T03:09:13;3.33;;;1.07;;
11767;SDS011;5941;57.652;12.514;2022-08-21T03:11:39;1.33;;;1.10;;
11767;SDS011;5941;57.652;12.514;2022-08-21T03:14:05;4.17;;;1.07;;
11767;SDS011;5941;57.652;12.514;2022-08-21T03:16:31;1.80;;;1.10;;
11767;SDS011;5941;57.652;12.514;2022-08-21T03:18:57;1.00;;;1.00;;
11767;SDS011;5941;57.652;12.514;2022-08-21T03:21:23;2.17;;;1.10;;
11767;SDS011;5941;57.652;12.514;2022-08-21T03:23:49;2.23;;;1.27;;
11767;SDS011;5941;57.652;12.514;2022-08-21T03:26:15;3.23;;;1.10;;
11767;SDS011;5941;57.652;12.514;2022-08-21T03:28:42;1.53;;;1.10;;
11767;SDS011;5941;57.652;12.514;2022-08-21T03:31:08;1.80;;;0.83;;
11767;SDS011;5941;57.652;12.514;2022-08-21T03:33:34;1.47;;;1.10;;
11767;SDS011;5941;57.652;12.514;2022-08-21T03:36:04;3.07;;;1.30;;
11767;SDS011;5941;57.652;12.514;2022-08-21T03:38:31;1.50;;;1.00;;
11767;SDS011;5941;57.652;12.514;2022-08-21T03:40:57;1.27;;;0.93;;
11767;SDS011;5941;57.652;12.514;2022-08-21T03:43:24;2.30;;;0.97;;
11767;SDS011;5941;57.652;12.514;2022-08-21T03:45:50;1.80;;;1.20;;
11767;SDS011;5941;57.652;12.514;2022-08-21T03:48:16;1.33;;;1.00;;
11767;SDS011;5941;57.652;12.514;2022-08-21T03:50:43;3.27;;;1.40;;
11767;SDS011;5941;57.652;12.514;2022-08-21T03:53:11;2.37;;;1.20;;
11767;SDS011;5941;57.652;12.514;2022-08-21T03:55:38;3.57;;;1.20;;
11767;SDS011;5941;57.652;12.514;2022-08-21T03:58:04;2.43;;;1.00;;
11767;SDS011;5941;57.652;12.514;2022-08-21T04:00:30;2.67;;;1.20;;
11767;SDS011;5941;57.652;12.514;2022-08-21T04:02:56;2.03;;;1.10;;
11767;SDS011;5941;57.652;12.514;2022-08-21T04:05:22;2.50;;;1.30;;
11767;SDS011;5941;57.652;12.514;2022-08-21T04:07:52;2.70;;;1.40;;
11767;SDS011;5941;57.652;12.514;2022-08-21T04:10:18;3.57;;;1.17;;
11767;SDS011;5941;57.652;12.514;2022-08-21T04:12:44;2.27;;;1.30;;
11767;SDS011;5941;57.652;12.514;2022-08-21T04:15:10;1.20;;;1.03;;
11767;SDS011;5941;57.652;12.514;2022-08-21T04:17:37;2.97;;;1.03;;
11767;SDS011;5941;57.652;12.514;2022-08-21T04:20:03;2.27;;;1.00;;
11767;SDS011;5941;57.652;12.514;2022-08-21T04:22:29;2.47;;;1.10;;
11767;SDS011;5941;57.652;12.514;2022-08-21T04:24:55;2.23;;;1.13;;
11767;SDS011;5941;57.652;12.514;2022-08-21T04:27:22;1.07;;;0.97;;
11767;SDS011;5941;57.652;12.514;2022-08-21T04:29:48;1.23;;;1.03;;
11767;SDS011;5941;57.652;12.514;2022-08-21T04:32:20;1.70;;;0.97;;
11767;SDS011;5941;57.652;12.514;2022-08-21T04:34:46;2.87;;;1.10;;
11767;SDS011;5941;57.652;12.514;2022-08-21T04:37:12;1.23;;;0.97;;
11767;SDS011;5941;57.652;12.514;2022-08-21T04:39:40;1.53;;;1.00;;
11767;SDS011;5941;57.652;12.514;2022-08-21T04:42:06;1.20;;;1.00;;
11767;SDS011;5941;57.652;12.514;2022-08-21T04:44:32;1.80;;;1.07;;
11767;SDS011;5941;57.652;12.514;2022-08-21T04:46:58;2.70;;;1.20;;
11767;SDS011;5941;57.652;12.514;2022-08-21T04:49:24;1.47;;;0.97;;
11767;SDS011;5941;57.652;12.514;2022-08-21T04:51:50;1.73;;;1.00;;
11767;SDS011;5941;57.652;12.514;2022-08-21T04:54:20;1.70;;;1.20;;
11767;SDS011;5941;57.652;12.514;2022-08-21T04:56:58;1.67;;;1.00;;
11767;SDS011;5941;57.652;12.514;2022-08-21T04:59:30;1.70;;;1.00;;
11767;SDS011;5941;57.652;12.514;2022-08-21T05:01:57;2.27;;;0.90;;
11767;SDS011;5941;57.652;12.514;2022-08-21T05:04:25;2.30;;;1.00;;
11767;SDS011;5941;57.652;12.514;2022-08-21T05:06:52;3.07;;;0.90;;
11767;SDS011;5941;57.652;12.514;2022-08-21T05:09:19;1.33;;;0.93;;
11767;SDS011;5941;57.652;12.514;2022-08-21T05:11:45;1.43;;;0.87;;
11767;SDS011;5941;57.652;12.514;2022-08-21T05:14:12;2.20;;;1.00;;
11767;SDS011;5941;57.652;12.514;2022-08-21T05:16:38;1.37;;;1.10;;
11767;SDS011;5941;57.652;12.514;2022-08-21T05:19:05;2.57;;;1.17;;
11767;SDS011;5941;57.652;12.514;2022-08-21T05:21:32;1.77;;;1.10;;
11767;SDS011;5941;57.652;12.514;2022-08-21T05:23:58;1.10;;;1.00;;
11767;SDS011;5941;57.652;12.514;2022-08-21T05:26:24;2.93;;;1.30;;
11767;SDS011;5941;57.652;12.514;2022-08-21T05:28:50;1.70;;;1.10;;
11767;SDS011;5941;57.652;12.514;2022-08-21T05:31:17;1.07;;;0.97;;
11767;SDS011;5941;57.652;12.514;2022-08-21T05:33:43;1.20;;;1.07;;
11767;SDS011;5941;57.652;12.514;2022-08-21T05:36:09;1.63;;;0.90;;
11767;SDS011;5941;57.652;12.514;2022-08-21T05:38:35;1.57;;;1.20;;
11767;SDS011;5941;57.652;12.514;2022-08-21T05:41:00;1.60;;;1.20;;
11767;SDS011;5941;57.652;12.514;2022-08-21T05:43:26;1.23;;;1.13;;
11767;SDS011;5941;57.652;12.514;2022-08-21T05:45:53;2.57;;;1.00;;
11767;SDS011;5941;57.652;12.514;2022-08-21T05:48:20;1.97;;;1.07;;
11767;SDS011;5941;57.652;12.514;2022-08-21T05:50:47;2.30;;;1.20;;
11767;SDS011;5941;57.652;12.514;2022-08-21T05:53:14;1.87;;;1.10;;
11767;SDS011;5941;57.652;12.514;2022-08-21T05:55:40;1.53;;;1.13;;
11767;SDS011;5941;57.652;12.514;2022-08-21T05:58:06;3.03;;;1.30;;
11767;SDS011;5941;57.652;12.514;2022-08-21T06:00:32;1.43;;;1.10;;
11767;SDS011;5941;57.652;12.514;2022-08-21T06:02:59;1.30;;;1.10;;
11767;SDS011;5941;57.652;12.514;2022-08-21T06:05:25;2.97;;;1.10;;
11767;SDS011;5941;57.652;12.514;2022-08-21T06:07:51;3.40;;;1.30;;
11767;SDS011;5941;57.652;12.514;2022-08-21T06:10:17;4.30;;;1.40;;
11767;SDS011;5941;57.652;12.514;2022-08-21T06:12:43;1.73;;;1.27;;
11767;SDS011;5941;57.652;12.514;2022-08-21T06:15:09;1.50;;;1.10;;
11767;SDS011;5941;57.652;12.514;2022-08-21T06:17:36;1.73;;;1.30;;
11767;SDS011;5941;57.652;12.514;2022-08-21T06:20:02;1.63;;;1.30;;
11767;SDS011;5941;57.652;12.514;2022-08-21T06:22:29;1.10;;;1.00;;
11767;SDS011;5941;57.652;12.514;2022-08-21T06:24:55;1.50;;;1.10;;
11767;SDS011;5941;57.652;12.514;2022-08-21T06:27:21;3.90;;;1.43;;
11767;SDS011;5941;57.652;12.514;2022-08-21T06:29:47;2.00;;;1.40;;
11767;SDS011;5941;57.652;12.514;2022-08-21T06:32:13;2.20;;;1.23;;
11767;SDS011;5941;57.652;12.514;2022-08-21T06:34:39;2.30;;;1.37;;
11767;SDS011;5941;57.652;12.514;2022-08-21T06:37:06;1.57;;;1.30;;
11767;SDS011;5941;57.652;12.514;2022-08-21T06:39:32;1.50;;;1.20;;
11767;SDS011;5941;57.652;12.514;2022-08-21T06:41:58;2.00;;;1.37;;
11767;SDS011;5941;57.652;12.514;2022-08-21T06:44:24;2.07;;;1.10;;
11767;SDS011;5941;57.652;12.514;2022-08-21T06:46:50;2.07;;;1.30;;
11767;SDS011;5941;57.652;12.514;2022-08-21T06:49:16;2.43;;;1.63;;
11767;SDS011;5941;57.652;12.514;2022-08-21T06:51:42;1.20;;;1.10;;
11767;SDS011;5941;57.652;12.514;2022-08-21T06:54:08;2.50;;;1.40;;
11767;SDS011;5941;57.652;12.514;2022-08-21T06:56:35;2.97;;;1.37;;
11767;SDS011;5941;57.652;12.514;2022-08-21T06:59:03;2.33;;;1.50;;
11767;SDS011;5941;57.652;12.514;2022-08-21T07:01:29;2.57;;;1.53;;
11767;SDS011;5941;57.652;12.514;2022-08-21T07:03:55;2.73;;;1.60;;
11767;SDS011;5941;57.652;12.514;2022-08-21T07:06:22;2.50;;;1.40;;
11767;SDS011;5941;57.652;12.514;2022-08-21T07:08:47;2.20;;;1.23;;
11767;SDS011;5941;57.652;12.514;2022-08-21T07:11:18;2.77;;;1.43;;
11767;SDS011;5941;57.652;12.514;2022-08-21T07:13:44;2.60;;;1.43;;
11767;SDS011;5941;57.652;12.514;2022-08-21T07:16:10;2.87;;;1.40;;
11767;SDS011;5941;57.652;12.514;2022-08-21T07:18:36;2.53;;;1.43;;
11767;SDS011;5941;57.652;12.514;2022-08-21T07:21:03;2.53;;;1.40;;
11767;SDS011;5941;57.652;12.514;2022-08-21T07:23:31;2.80;;;1.50;;
11767;SDS011;5941;57.652;12.514;2022-08-21T07:25:58;3.77;;;1.60;;
11767;SDS011;5941;57.652;12.514;2022-08-21T07:28:25;2.23;;;1.63;;
11767;SDS011;5941;57.652;12.514;2022-08-21T07:30:52;3.33;;;1.47;;
11767;SDS011;5941;57.652;12.514;2022-08-21T07:33:19;2.87;;;1.53;;
11767;SDS011;5941;57.652;12.514;2022-08-21T07:35:44;4.30;;;1.63;;
11767;SDS011;5941;57.652;12.514;2022-08-21T07:38:10;3.40;;;1.97;;
11767;SDS011;5941;57.652;12.514;2022-08-21T07:40:36;2.80;;;1.93;;
11767;SDS011;5941;57.652;12.514;2022-08-21T07:43:03;5.40;;;2.20;;
11767;SDS011;5941;57.652;12.514;2022-08-21T07:45:29;6.50;;;2.10;;
11767;SDS011;5941;57.652;12.514;2022-08-21T07:47:55;4.80;;;2.00;;
11767;SDS011;5941;57.652;12.514;2022-08-21T07:50:21;4.57;;;1.63;;
11767;SDS011;5941;57.652;12.514;2022-08-21T07:52:47;3.27;;;1.43;;
11767;SDS011;5941;57.652;12.514;2022-08-21T07:55:16;3.67;;;1.50;;
11767;SDS011;5941;57.652;12.514;2022-08-21T07:57:42;3.60;;;1.60;;
11767;SDS011;5941;57.652;12.514;2022-08-21T08:00:10;3.30;;;1.80;;
11767;SDS011;5941;57.652;12.514;2022-08-21T08:02:37;3.17;;;1.77;;
11767;SDS011;5941;57.652;12.514;2022-08-21T08:05:03;5.30;;;1.80;;
11767;SDS011;5941;57.652;12.514;2022-08-21T08:07:29;5.20;;;1.60;;
11767;SDS011;5941;57.652;12.514;2022-08-21T08:09:55;3.17;;;1.50;;
11767;SDS011;5941;57.652;12.514;2022-08-21T08:12:22;2.93;;;1.80;;
11767;SDS011;5941;57.652;12.514;2022-08-21T08:14:53;2.87;;;1.40;;
11767;SDS011;5941;57.652;12.514;2022-08-21T08:17:19;2.37;;;1.50;;
11767;SDS011;5941;57.652;12.514;2022-08-21T08:19:48;6.57;;;1.70;;
11767;SDS011;5941;57.652;12.514;2022-08-21T08:22:18;4.80;;;1.77;;
11767;SDS011;5941;57.652;12.514;2022-08-21T08:24:45;6.17;;;2.00;;
11767;SDS011;5941;57.652;12.514;2022-08-21T08:27:11;4.53;;;1.50;;
11767;SDS011;5941;57.652;12.514;2022-08-21T08:29:37;5.77;;;1.90;;
11767;SDS011;5941;57.652;12.514;2022-08-21T08:32:04;4.20;;;1.63;;
11767;SDS011;5941;57.652;12.514;2022-08-21T08:34:32;4.33;;;1.63;;
11767;SDS011;5941;57.652;12.514;2022-08-21T08:36:58;2.83;;;1.67;;
11767;SDS011;5941;57.652;12.514;2022-08-21T08:39:24;3.83;;;1.50;;
11767;SDS011;5941;57.652;12.514;2022-08-21T08:41:52;3.53;;;1.63;;
11767;SDS011;5941;57.652;12.514;2022-08-21T08:44:21;5.40;;;1.80;;
11767;SDS011;5941;57.652;12.514;2022-08-21T08:46:47;4.57;;;1.53;;
11767;SDS011;5941;57.652;12.514;2022-08-21T08:51:51;6.60;;;1.67;;
11767;SDS011;5941;57.652;12.514;2022-08-21T08:54:19;5.83;;;1.53;;
11767;SDS011;5941;57.652;12.514;2022-08-21T08:56:46;2.70;;;1.50;;
11767;SDS011;5941;57.652;12.514;2022-08-21T08:59:17;3.45;;;1.52;;
11767;SDS011;5941;57.652;12.514;2022-08-21T09:01:44;3.78;;;1.60;;
11767;SDS011;5941;57.652;12.514;2022-08-21T09:04:11;1.87;;;1.20;;
11767;SDS011;5941;57.652;12.514;2022-08-21T09:09:11;2.78;;;1.48;;
11767;SDS011;5941;57.652;12.514;2022-08-21T09:11:52;5.13;;;1.38;;
11767;SDS011;5941;57.652;12.514;2022-08-21T09:25:05;3.88;;;1.40;;
11767;SDS011;5941;57.652;12.514;2022-08-21T09:27:33;4.93;;;1.45;;
11767;SDS011;5941;57.652;12.514;2022-08-21T09:30:03;1.98;;;1.20;;
11767;SDS011;5941;57.652;12.514;2022-08-21T09:32:30;2.63;;;1.60;;
11767;SDS011;5941;57.652;12.514;2022-08-21T09:34:59;4.10;;;1.45;;
11767;SDS011;5941;57.652;12.514;2022-08-21T09:37:26;5.05;;;1.40;;
11767;SDS011;5941;57.652;12.514;2022-08-21T09:39:57;3.25;;;1.60;;
11767;SDS011;5941;57.652;12.514;2022-08-21T09:42:28;3.03;;;1.55;;
11767;SDS011;5941;57.652;12.514;2022-08-21T09:45:11;3.28;;;1.02;;
11767;SDS011;5941;57.652;12.514;2022-08-21T09:47:37;6.78;;;1.58;;
11767;SDS011;5941;57.652;12.514;2022-08-21T09:50:07;2.38;;;1.40;;
11767;SDS011;5941;57.652;12.514;2022-08-21T09:52:33;1.90;;;1.17;;
11767;SDS011;5941;57.652;12.514;2022-08-21T09:54:59;3.05;;;1.50;;
11767;SDS011;5941;57.652;12.514;2022-08-21T09:57:26;3.40;;;1.38;;
11767;SDS011;5941;57.652;12.514;2022-08-21T10:02:49;4.10;;;1.42;;
11767;SDS011;5941;57.652;12.514;2022-08-21T10:05:17;2.63;;;1.33;;
11767;SDS011;5941;57.652;12.514;2022-08-21T10:07:44;2.67;;;1.30;;
11767;SDS011;5941;57.652;12.514;2022-08-21T10:15:31;2.00;;;1.10;;
11767;SDS011;5941;57.652;12.514;2022-08-21T10:18:04;2.17;;;1.23;;
11767;SDS011;5941;57.652;12.514;2022-08-21T10:20:46;1.38;;;1.00;;
11767;SDS011;5941;57.652;12.514;2022-08-21T10:25:58;2.75;;;1.08;;
11767;SDS011;5941;57.652;12.514;2022-08-21T10:28:32;3.20;;;1.10;;
11767;SDS011;5941;57.652;12.514;2022-08-21T10:31:13;3.30;;;1.13;;
11767;SDS011;5941;57.652;12.514;2022-08-21T10:36:33;3.33;;;1.10;;
11767;SDS011;5941;57.652;12.514;2022-08-21T10:55:08;2.50;;;1.00;;
11767;SDS011;5941;57.652;12.514;2022-08-21T11:00:08;2.10;;;1.02;;
11767;SDS011;5941;57.652;12.514;2022-08-21T11:05:21;2.35;;;0.93;;
11767;SDS011;5941;57.652;12.514;2022-08-21T11:07:51;2.92;;;1.20;;
11767;SDS011;5941;57.652;12.514;2022-08-21T11:10:33;2.78;;;1.13;;
11767;SDS011;5941;57.652;12.514;2022-08-21T11:13:04;2.03;;;1.05;;
11767;SDS011;5941;57.652;12.514;2022-08-21T11:18:03;2.22;;;1.42;;
11767;SDS011;5941;57.652;12.514;2022-08-21T11:20:33;1.92;;;1.00;;
11767;SDS011;5941;57.652;12.514;2022-08-21T11:25:40;2.50;;;1.13;;
11767;SDS011;5941;57.652;12.514;2022-08-21T11:28:12;2.10;;;0.75;;
11767;SDS011;5941;57.652;12.514;2022-08-21T11:30:46;1.92;;;0.95;;
11767;SDS011;5941;57.652;12.514;2022-08-21T11:33:20;3.53;;;1.40;;
11767;SDS011;5941;57.652;12.514;2022-08-21T11:36:00;3.05;;;1.17;;
11767;SDS011;5941;57.652;12.514;2022-08-21T11:48:46;3.25;;;1.10;;
11767;SDS011;5941;57.652;12.514;2022-08-21T11:51:20;2.50;;;1.05;;
11767;SDS011;5941;57.652;12.514;2022-08-21T11:56:24;1.40;;;1.10;;
11767;SDS011;5941;57.652;12.514;2022-08-21T11:58:53;2.53;;;0.90;;
11767;SDS011;5941;57.652;12.514;2022-08-21T12:01:40;3.80;;;1.00;;
11767;SDS011;5941;57.652;12.514;2022-08-21T12:04:08;2.13;;;1.40;;
11767;SDS011;5941;57.652;12.514;2022-08-21T12:06:37;3.42;;;0.90;;
11767;SDS011;5941;57.652;12.514;2022-08-21T12:11:49;2.30;;;0.95;;
11767;SDS011;5941;57.652;12.514;2022-08-21T12:14:16;2.53;;;1.00;;
11767;SDS011;5941;57.652;12.514;2022-08-21T12:16:44;3.20;;;1.13;;
11767;SDS011;5941;57.652;12.514;2022-08-21T12:26:57;2.17;;;0.93;;
11767;SDS011;5941;57.652;12.514;2022-08-21T12:29:30;3.08;;;1.05;;
11767;SDS011;5941;57.652;12.514;2022-08-21T12:32:01;1.65;;;0.95;;
11767;SDS011;5941;57.652;12.514;2022-08-21T12:34:34;1.63;;;1.10;;
11767;SDS011;5941;57.652;12.514;2022-08-21T12:37:22;1.85;;;1.13;;
11767;SDS011;5941;57.652;12.514;2022-08-21T12:39:47;2.38;;;1.25;;
11767;SDS011;5941;57.652;12.514;2022-08-21T12:42:16;2.42;;;1.17;;
11767;SDS011;5941;57.652;12.514;2022-08-21T12:44:44;2.17;;;1.15;;
11767;SDS011;5941;57.652;12.514;2022-08-21T12:47:32;1.85;;;1.30;;
11767;SDS011;5941;57.652;12.514;2022-08-21T12:50:02;2.47;;;1.27;;
11767;SDS011;5941;57.652;12.514;2022-08-21T12:52:30;4.05;;;1.17;;
11767;SDS011;5941;57.652;12.514;2022-08-21T12:54:58;4.40;;;1.50;;
11767;SDS011;5941;57.652;12.514;2022-08-21T12:57:26;2.67;;;1.20;;
11767;SDS011;5941;57.652;12.514;2022-08-21T12:59:57;2.97;;;1.40;;
11767;SDS011;5941;57.652;12.514;2022-08-21T13:02:25;3.40;;;1.20;;
11767;SDS011;5941;57.652;12.514;2022-08-21T13:04:51;3.08;;;1.33;;
11767;SDS011;5941;57.652;12.514;2022-08-21T13:07:22;4.93;;;1.50;;
11767;SDS011;5941;57.652;12.514;2022-08-21T13:09:51;2.83;;;1.35;;
11767;SDS011;5941;57.652;12.514;2022-08-21T13:12:18;3.15;;;1.52;;
11767;SDS011;5941;57.652;12.514;2022-08-21T13:14:46;2.65;;;1.35;;
11767;SDS011;5941;57.652;12.514;2022-08-21T13:17:12;3.38;;;1.38;;
11767;SDS011;5941;57.652;12.514;2022-08-21T13:19:39;2.10;;;1.38;;
11767;SDS011;5941;57.652;12.514;2022-08-21T13:22:11;4.00;;;1.30;;
11767;SDS011;5941;57.652;12.514;2022-08-21T13:24:37;2.35;;;1.38;;
11767;SDS011;5941;57.652;12.514;2022-08-21T13:27:14;2.63;;;1.73;;
11767;SDS011;5941;57.652;12.514;2022-08-21T13:29:41;4.18;;;1.63;;
11767;SDS011;5941;57.652;12.514;2022-08-21T13:32:16;3.53;;;1.50;;
11767;SDS011;5941;57.652;12.514;2022-08-21T13:34:44;2.75;;;1.38;;
11767;SDS011;5941;57.652;12.514;2022-08-21T13:37:10;2.88;;;1.50;;
11767;SDS011;5941;57.652;12.514;2022-08-21T13:39:37;2.35;;;1.30;;
11767;SDS011;5941;57.652;12.514;2022-08-21T13:42:03;4.07;;;1.52;;
11767;SDS011;5941;57.652;12.514;2022-08-21T13:46:57;4.03;;;1.70;;
11767;SDS011;5941;57.652;12.514;2022-08-21T13:49:34;4.65;;;1.70;;
11767;SDS011;5941;57.652;12.514;2022-08-21T13:52:00;3.40;;;1.42;;
11767;SDS011;5941;57.652;12.514;2022-08-21T13:54:36;2.83;;;1.48;;
11767;SDS011;5941;57.652;12.514;2022-08-21T13:57:03;4.05;;;1.42;;
11767;SDS011;5941;57.652;12.514;2022-08-21T13:59:33;5.50;;;1.92;;
11767;SDS011;5941;57.652;12.514;2022-08-21T14:02:01;3.28;;;1.88;;
11767;SDS011;5941;57.652;12.514;2022-08-21T14:04:32;3.63;;;1.58;;
11767;SDS011;5941;57.652;12.514;2022-08-21T14:06:59;3.78;;;1.65;;
11767;SDS011;5941;57.652;12.514;2022-08-21T14:09:26;4.30;;;1.73;;
11767;SDS011;5941;57.652;12.514;2022-08-21T14:11:54;4.50;;;1.92;;
11767;SDS011;5941;57.652;12.514;2022-08-21T14:14:22;3.03;;;1.30;;
11767;SDS011;5941;57.652;12.514;2022-08-21T14:16:54;2.88;;;1.60;;
11767;SDS011;5941;57.652;12.514;2022-08-21T14:19:25;4.93;;;1.70;;
11767;SDS011;5941;57.652;12.514;2022-08-21T14:21:51;3.85;;;1.60;;
11767;SDS011;5941;57.652;12.514;2022-08-21T14:26:49;4.05;;;1.80;;
11767;SDS011;5941;57.652;12.514;2022-08-21T14:29:16;5.82;;;1.77;;
11767;SDS011;5941;57.652;12.514;2022-08-21T14:31:43;5.35;;;1.60;;
11767;SDS011;5941;57.652;12.514;2022-08-21T14:34:14;5.15;;;1.85;;
11767;SDS011;5941;57.652;12.514;2022-08-21T14:36:42;3.83;;;1.50;;
11767;SDS011;5941;57.652;12.514;2022-08-21T14:39:08;6.43;;;1.73;;
11767;SDS011;5941;57.652;12.514;2022-08-21T14:41:34;4.35;;;1.67;;
11767;SDS011;5941;57.652;12.514;2022-08-21T14:44:02;3.38;;;1.40;;
11767;SDS011;5941;57.652;12.514;2022-08-21T14:46:29;2.33;;;1.45;;
11767;SDS011;5941;57.652;12.514;2022-08-21T14:48:56;4.78;;;1.63;;
11767;SDS011;5941;57.652;12.514;2022-08-21T14:51:23;2.53;;;1.30;;
11767;SDS011;5941;57.652;12.514;2022-08-21T14:53:49;3.97;;;1.50;;
11767;SDS011;5941;57.652;12.514;2022-08-21T14:56:15;3.95;;;2.03;;
11767;SDS011;5941;57.652;12.514;2022-08-21T14:58:43;5.97;;;1.58;;
11767;SDS011;5941;57.652;12.514;2022-08-21T15:01:10;7.22;;;1.60;;
11767;SDS011;5941;57.652;12.514;2022-08-21T15:03:37;5.28;;;1.30;;
11767;SDS011;5941;57.652;12.514;2022-08-21T15:06:03;3.08;;;1.23;;
11767;SDS011;5941;57.652;12.514;2022-08-21T15:08:29;4.82;;;1.50;;
11767;SDS011;5941;57.652;12.514;2022-08-21T15:10:57;2.40;;;1.45;;
11767;SDS011;5941;57.652;12.514;2022-08-21T15:13:23;5.30;;;1.60;;
11767;SDS011;5941;57.652;12.514;2022-08-21T15:15:49;3.70;;;1.23;;
11767;SDS011;5941;57.652;12.514;2022-08-21T15:18:17;6.03;;;1.90;;
11767;SDS011;5941;57.652;12.514;2022-08-21T15:20:43;3.88;;;1.60;;
11767;SDS011;5941;57.652;12.514;2022-08-21T15:23:09;3.03;;;1.40;;
11767;SDS011;5941;57.652;12.514;2022-08-21T15:25:36;2.67;;;1.42;;
11767;SDS011;5941;57.652;12.514;2022-08-21T15:28:02;3.70;;;1.48;;
11767;SDS011;5941;57.652;12.514;2022-08-21T15:30:28;3.35;;;1.38;;
11767;SDS011;5941;57.652;12.514;2022-08-21T15:32:55;4.00;;;1.42;;
11767;SDS011;5941;57.652;12.514;2022-08-21T15:35:21;3.53;;;1.40;;
11767;SDS011;5941;57.652;12.514;2022-08-21T15:37:47;3.92;;;1.35;;
11767;SDS011;5941;57.652;12.514;2022-08-21T15:40:14;3.97;;;1.33;;
11767;SDS011;5941;57.652;12.514;2022-08-21T15:42:41;4.63;;;1.40;;
11767;SDS011;5941;57.652;12.514;2022-08-21T15:45:07;3.38;;;1.40;;
11767;SDS011;5941;57.652;12.514;2022-08-21T15:47:35;3.50;;;1.02;;
11767;SDS011;5941;57.652;12.514;2022-08-21T15:50:02;2.88;;;1.33;;
11767;SDS011;5941;57.652;12.514;2022-08-21T15:52:29;4.10;;;1.30;;
11767;SDS011;5941;57.652;12.514;2022-08-21T15:54:55;2.75;;;1.23;;
11767;SDS011;5941;57.652;12.514;2022-08-21T15:57:21;1.98;;;1.13;;
11767;SDS011;5941;57.652;12.514;2022-08-21T15:59:49;3.67;;;1.60;;
11767;SDS011;5941;57.652;12.514;2022-08-21T16:02:21;2.13;;;1.10;;
11767;SDS011;5941;57.652;12.514;2022-08-21T16:04:48;4.13;;;1.48;;
11767;SDS011;5941;57.652;12.514;2022-08-21T16:07:14;2.90;;;1.45;;
11767;SDS011;5941;57.652;12.514;2022-08-21T16:09:40;2.50;;;1.20;;
11767;SDS011;5941;57.652;12.514;2022-08-21T16:12:06;5.00;;;1.77;;
11767;SDS011;5941;57.652;12.514;2022-08-21T16:14:33;3.05;;;1.50;;
11767;SDS011;5941;57.652;12.514;2022-08-21T16:17:01;3.92;;;1.70;;